sensor_id;sensor_type;location;lat;lon;timestamp;P1;durP1;ratioP1;P2;durP2;ratioP2
14789;SDS011;7486;51.010;10.366;2022-12-08T00:02:12;10.13;;;7.97;;
14789;SDS011;7486;51.010;10.366;2022-12-08T00:04:39;12.43;;;7.70;;
14789;SDS011;7486;51.010;10.366;2022-12-08T00:07:09;11.40;;;8.00;;
14789;SDS011;7486;51.010;10.366;2022-12-08T00:09:37;10.60;;;8.27;;
14789;SDS011;7486;51.010;10.366;2022-12-08T00:17:05;13.53;;;8.73;;
14789;SDS011;7486;51.010;10.366;2022-12-08T00:19:34;10.83;;;8.93;;
14789;SDS011;7486;51.010;10.366;2022-12-08T00:22:01;11.20;;;8.43;;
14789;SDS011;7486;51.010;10.366;2022-12-08T00:24:29;12.43;;;8.30;;
14789;SDS011;7486;51.010;10.366;2022-12-08T00:26:57;12.73;;;8.90;;
14789;SDS011;7486;51.010;10.366;2022-12-08T00:29:24;12.00;;;8.70;;
14789;SDS011;7486;51.010;10.366;2022-12-08T00:31:51;15.33;;;9.63;;
14789;SDS011;7486;51.010;10.366;2022-12-08T00:34:18;13.10;;;8.77;;
14789;SDS011;7486;51.010;10.366;2022-12-08T00:36:45;11.53;;;8.70;;
14789;SDS011;7486;51.010;10.366;2022-12-08T00:39:13;12.43;;;9.13;;
14789;SDS011;7486;51.010;10.366;2022-12-08T00:41:40;10.80;;;8.27;;
14789;SDS011;7486;51.010;10.366;2022-12-08T00:44:07;10.83;;;8.67;;
14789;SDS011;7486;51.010;10.366;2022-12-08T00:46:35;13.73;;;9.03;;
14789;SDS011;7486;51.010;10.366;2022-12-08T00:49:03;13.90;;;9.07;;
14789;SDS011;7486;51.010;10.366;2022-12-08T00:51:31;13.53;;;9.10;;
14789;SDS011;7486;51.010;10.366;2022-12-08T00:53:58;10.53;;;8.80;;
14789;SDS011;7486;51.010;10.366;2022-12-08T00:56:25;13.33;;;9.17;;
14789;SDS011;7486;51.010;10.366;2022-12-08T00:58:52;10.23;;;8.60;;
14789;SDS011;7486;51.010;10.366;2022-12-08T01:01:19;12.70;;;9.07;;
14789;SDS011;7486;51.010;10.366;2022-12-08T01:03:45;10.47;;;8.70;;
14789;SDS011;7486;51.010;10.366;2022-12-08T01:06:13;13.00;;;8.77;;
14789;SDS011;7486;51.010;10.366;2022-12-08T01:08:39;12.33;;;9.60;;
14789;SDS011;7486;51.010;10.366;2022-12-08T01:11:08;11.63;;;8.37;;
14789;SDS011;7486;51.010;10.366;2022-12-08T01:13:37;12.23;;;8.97;;
14789;SDS011;7486;51.010;10.366;2022-12-08T01:16:03;12.00;;;8.77;;
14789;SDS011;7486;51.010;10.366;2022-12-08T01:18:30;12.43;;;9.17;;
14789;SDS011;7486;51.010;10.366;2022-12-08T01:21:02;13.20;;;9.17;;
14789;SDS011;7486;51.010;10.366;2022-12-08T01:23:30;11.13;;;8.97;;
14789;SDS011;7486;51.010;10.366;2022-12-08T01:26:00;10.27;;;8.10;;
14789;SDS011;7486;51.010;10.366;2022-12-08T01:28:31;11.87;;;8.63;;
14789;SDS011;7486;51.010;10.366;2022-12-08T01:30:58;11.27;;;8.97;;
14789;SDS011;7486;51.010;10.366;2022-12-08T01:33:26;12.10;;;8.83;;
14789;SDS011;7486;51.010;10.366;2022-12-08T01:35:54;11.67;;;8.27;;
14789;SDS011;7486;51.010;10.366;2022-12-08T01:38:21;10.90;;;8.47;;
14789;SDS011;7486;51.010;10.366;2022-12-08T01:40:48;12.33;;;8.33;;
14789;SDS011;7486;51.010;10.366;2022-12-08T01:43:18;10.43;;;8.10;;
14789;SDS011;7486;51.010;10.366;2022-12-08T01:45:46;11.27;;;8.50;;
14789;SDS011;7486;51.010;10.366;2022-12-08T01:48:15;10.13;;;8.40;;
14789;SDS011;7486;51.010;10.366;2022-12-08T01:50:53;10.43;;;7.73;;
14789;SDS011;7486;51.010;10.366;2022-12-08T01:53:25;10.17;;;7.83;;
14789;SDS011;7486;51.010;10.366;2022-12-08T01:55:56;10.07;;;8.00;;
14789;SDS011;7486;51.010;10.366;2022-12-08T01:58:29;10.07;;;7.77;;
14789;SDS011;7486;51.010;10.366;2022-12-08T02:01:00;8.73;;;6.97;;
14789;SDS011;7486;51.010;10.366;2022-12-08T02:03:28;9.77;;;7.50;;
14789;SDS011;7486;51.010;10.366;2022-12-08T02:06:15;9.20;;;7.60;;
14789;SDS011;7486;51.010;10.366;2022-12-08T02:08:43;7.93;;;6.93;;
14789;SDS011;7486;51.010;10.366;2022-12-08T02:11:11;9.30;;;6.80;;
14789;SDS011;7486;51.010;10.366;2022-12-08T02:13:39;9.10;;;6.93;;
14789;SDS011;7486;51.010;10.366;2022-12-08T02:35:56;6.80;;;6.10;;
14789;SDS011;7486;51.010;10.366;2022-12-08T02:38:13;7.67;;;6.77;;
14789;SDS011;7486;51.010;10.366;2022-12-08T02:43:13;8.43;;;6.30;;
14789;SDS011;7486;51.010;10.366;2022-12-08T02:45:47;7.87;;;6.77;;
14789;SDS011;7486;51.010;10.366;2022-12-08T02:48:17;8.17;;;6.70;;
14789;SDS011;7486;51.010;10.366;2022-12-08T02:50:44;7.07;;;6.37;;
14789;SDS011;7486;51.010;10.366;2022-12-08T02:53:11;9.43;;;7.50;;
14789;SDS011;7486;51.010;10.366;2022-12-08T03:04:07;7.47;;;6.67;;
14789;SDS011;7486;51.010;10.366;2022-12-08T03:12:13;8.70;;;7.43;;
14789;SDS011;7486;51.010;10.366;2022-12-08T03:14:46;9.13;;;7.23;;
14789;SDS011;7486;51.010;10.366;2022-12-08T03:17:16;9.50;;;7.20;;
14789;SDS011;7486;51.010;10.366;2022-12-08T03:19:47;10.60;;;8.00;;
14789;SDS011;7486;51.010;10.366;2022-12-08T03:22:15;9.83;;;7.63;;
14789;SDS011;7486;51.010;10.366;2022-12-08T03:24:47;10.03;;;7.80;;
14789;SDS011;7486;51.010;10.366;2022-12-08T03:27:15;9.00;;;7.43;;
14789;SDS011;7486;51.010;10.366;2022-12-08T03:29:48;10.00;;;8.07;;
14789;SDS011;7486;51.010;10.366;2022-12-08T03:35:13;11.77;;;7.83;;
14789;SDS011;7486;51.010;10.366;2022-12-08T03:37:43;9.40;;;7.53;;
14789;SDS011;7486;51.010;10.366;2022-12-08T03:40:11;9.37;;;7.30;;
14789;SDS011;7486;51.010;10.366;2022-12-08T03:42:40;9.73;;;8.00;;
14789;SDS011;7486;51.010;10.366;2022-12-08T03:45:07;11.00;;;7.97;;
14789;SDS011;7486;51.010;10.366;2022-12-08T03:47:34;10.53;;;7.87;;
14789;SDS011;7486;51.010;10.366;2022-12-08T03:50:00;9.40;;;7.50;;
14789;SDS011;7486;51.010;10.366;2022-12-08T03:52:28;9.50;;;7.90;;
14789;SDS011;7486;51.010;10.366;2022-12-08T03:54:54;9.27;;;7.23;;
14789;SDS011;7486;51.010;10.366;2022-12-08T03:57:21;10.23;;;7.53;;
14789;SDS011;7486;51.010;10.366;2022-12-08T03:59:48;12.17;;;8.10;;
14789;SDS011;7486;51.010;10.366;2022-12-08T04:02:14;11.00;;;8.40;;
14789;SDS011;7486;51.010;10.366;2022-12-08T04:04:41;10.07;;;8.47;;
14789;SDS011;7486;51.010;10.366;2022-12-08T04:07:08;12.03;;;7.57;;
14789;SDS011;7486;51.010;10.366;2022-12-08T04:09:35;10.97;;;7.73;;
14789;SDS011;7486;51.010;10.366;2022-12-08T04:12:01;11.00;;;8.03;;
14789;SDS011;7486;51.010;10.366;2022-12-08T04:14:28;12.87;;;7.83;;
14789;SDS011;7486;51.010;10.366;2022-12-08T04:16:55;10.17;;;8.37;;
14789;SDS011;7486;51.010;10.366;2022-12-08T04:19:21;10.27;;;8.23;;
14789;SDS011;7486;51.010;10.366;2022-12-08T04:21:48;11.87;;;8.50;;
14789;SDS011;7486;51.010;10.366;2022-12-08T04:24:15;9.53;;;8.03;;
14789;SDS011;7486;51.010;10.366;2022-12-08T04:26:41;10.40;;;8.50;;
14789;SDS011;7486;51.010;10.366;2022-12-08T04:29:08;11.53;;;8.83;;
14789;SDS011;7486;51.010;10.366;2022-12-08T04:31:35;12.67;;;9.20;;
14789;SDS011;7486;51.010;10.366;2022-12-08T04:34:04;13.23;;;8.80;;
14789;SDS011;7486;51.010;10.366;2022-12-08T04:36:31;12.00;;;8.83;;
14789;SDS011;7486;51.010;10.366;2022-12-08T04:38:58;11.50;;;8.30;;
14789;SDS011;7486;51.010;10.366;2022-12-08T04:41:25;10.57;;;8.80;;
14789;SDS011;7486;51.010;10.366;2022-12-08T04:43:52;10.13;;;9.03;;
14789;SDS011;7486;51.010;10.366;2022-12-08T04:46:18;12.47;;;9.13;;
14789;SDS011;7486;51.010;10.366;2022-12-08T04:48:45;13.23;;;9.30;;
14789;SDS011;7486;51.010;10.366;2022-12-08T04:51:13;14.47;;;9.87;;
14789;SDS011;7486;51.010;10.366;2022-12-08T04:53:42;12.07;;;9.17;;
14789;SDS011;7486;51.010;10.366;2022-12-08T04:56:13;12.03;;;9.13;;
14789;SDS011;7486;51.010;10.366;2022-12-08T04:58:46;13.13;;;9.63;;
14789;SDS011;7486;51.010;10.366;2022-12-08T05:01:13;12.53;;;10.00;;
14789;SDS011;7486;51.010;10.366;2022-12-08T05:03:40;13.73;;;9.90;;
14789;SDS011;7486;51.010;10.366;2022-12-08T05:06:08;13.60;;;9.97;;
14789;SDS011;7486;51.010;10.366;2022-12-08T05:08:37;14.27;;;10.30;;
14789;SDS011;7486;51.010;10.366;2022-12-08T05:11:04;14.97;;;10.00;;
14789;SDS011;7486;51.010;10.366;2022-12-08T05:13:32;15.43;;;10.67;;
14789;SDS011;7486;51.010;10.366;2022-12-08T05:16:03;13.33;;;10.73;;
14789;SDS011;7486;51.010;10.366;2022-12-08T05:18:30;15.37;;;12.13;;
14789;SDS011;7486;51.010;10.366;2022-12-08T05:20:57;14.00;;;10.77;;
14789;SDS011;7486;51.010;10.366;2022-12-08T05:23:24;14.77;;;10.93;;
14789;SDS011;7486;51.010;10.366;2022-12-08T05:25:51;18.67;;;11.33;;
14789;SDS011;7486;51.010;10.366;2022-12-08T05:28:19;15.70;;;11.70;;
14789;SDS011;7486;51.010;10.366;2022-12-08T05:31:05;17.47;;;11.50;;
14789;SDS011;7486;51.010;10.366;2022-12-08T05:33:32;16.00;;;11.60;;
14789;SDS011;7486;51.010;10.366;2022-12-08T05:35:59;15.67;;;10.93;;
14789;SDS011;7486;51.010;10.366;2022-12-08T05:38:25;15.47;;;11.33;;
14789;SDS011;7486;51.010;10.366;2022-12-08T05:40:52;16.00;;;11.27;;
14789;SDS011;7486;51.010;10.366;2022-12-08T05:43:19;16.60;;;11.40;;
14789;SDS011;7486;51.010;10.366;2022-12-08T05:45:45;17.17;;;11.40;;
14789;SDS011;7486;51.010;10.366;2022-12-08T05:48:12;16.83;;;11.87;;
14789;SDS011;7486;51.010;10.366;2022-12-08T05:50:39;16.23;;;11.70;;
14789;SDS011;7486;51.010;10.366;2022-12-08T05:53:10;16.43;;;12.20;;
14789;SDS011;7486;51.010;10.366;2022-12-08T05:55:37;19.37;;;12.17;;
14789;SDS011;7486;51.010;10.366;2022-12-08T05:58:05;16.20;;;11.73;;
14789;SDS011;7486;51.010;10.366;2022-12-08T06:00:33;17.50;;;12.43;;
14789;SDS011;7486;51.010;10.366;2022-12-08T06:03:00;16.37;;;11.60;;
14789;SDS011;7486;51.010;10.366;2022-12-08T06:05:27;18.73;;;12.23;;
14789;SDS011;7486;51.010;10.366;2022-12-08T06:07:53;18.33;;;11.67;;
14789;SDS011;7486;51.010;10.366;2022-12-08T06:10:20;17.80;;;12.23;;
14789;SDS011;7486;51.010;10.366;2022-12-08T06:12:47;15.53;;;11.17;;
14789;SDS011;7486;51.010;10.366;2022-12-08T06:15:13;16.77;;;11.80;;
14789;SDS011;7486;51.010;10.366;2022-12-08T06:17:40;17.10;;;12.17;;
14789;SDS011;7486;51.010;10.366;2022-12-08T06:20:07;16.77;;;12.50;;
14789;SDS011;7486;51.010;10.366;2022-12-08T06:22:34;15.80;;;11.47;;
14789;SDS011;7486;51.010;10.366;2022-12-08T06:25:02;18.17;;;12.33;;
14789;SDS011;7486;51.010;10.366;2022-12-08T06:27:35;15.13;;;11.87;;
14789;SDS011;7486;51.010;10.366;2022-12-08T06:30:01;14.90;;;11.23;;
14789;SDS011;7486;51.010;10.366;2022-12-08T06:32:29;16.20;;;11.40;;
14789;SDS011;7486;51.010;10.366;2022-12-08T06:34:56;15.30;;;11.27;;
14789;SDS011;7486;51.010;10.366;2022-12-08T06:37:23;14.23;;;11.13;;
14789;SDS011;7486;51.010;10.366;2022-12-08T06:39:49;15.20;;;10.83;;
14789;SDS011;7486;51.010;10.366;2022-12-08T06:42:16;14.63;;;10.57;;
14789;SDS011;7486;51.010;10.366;2022-12-08T06:44:43;13.80;;;10.60;;
14789;SDS011;7486;51.010;10.366;2022-12-08T06:47:09;14.90;;;10.33;;
14789;SDS011;7486;51.010;10.366;2022-12-08T06:49:36;15.13;;;10.50;;
14789;SDS011;7486;51.010;10.366;2022-12-08T06:52:03;14.87;;;10.07;;
14789;SDS011;7486;51.010;10.366;2022-12-08T06:54:30;14.63;;;9.30;;
14789;SDS011;7486;51.010;10.366;2022-12-08T06:56:56;12.97;;;9.80;;
14789;SDS011;7486;51.010;10.366;2022-12-08T06:59:23;13.53;;;9.83;;
14789;SDS011;7486;51.010;10.366;2022-12-08T07:01:50;12.03;;;9.17;;
14789;SDS011;7486;51.010;10.366;2022-12-08T07:04:17;11.43;;;9.27;;
14789;SDS011;7486;51.010;10.366;2022-12-08T07:06:44;11.27;;;8.63;;
14789;SDS011;7486;51.010;10.366;2022-12-08T07:09:10;11.37;;;8.50;;
14789;SDS011;7486;51.010;10.366;2022-12-08T07:11:37;11.33;;;8.63;;
14789;SDS011;7486;51.010;10.366;2022-12-08T07:14:04;10.67;;;8.73;;
14789;SDS011;7486;51.010;10.366;2022-12-08T07:16:31;11.47;;;9.50;;
14789;SDS011;7486;51.010;10.366;2022-12-08T07:18:58;11.57;;;8.93;;
14789;SDS011;7486;51.010;10.366;2022-12-08T07:21:25;13.10;;;10.03;;
14789;SDS011;7486;51.010;10.366;2022-12-08T07:23:52;11.77;;;9.60;;
14789;SDS011;7486;51.010;10.366;2022-12-08T07:26:23;11.13;;;8.67;;
14789;SDS011;7486;51.010;10.366;2022-12-08T07:28:50;11.93;;;9.00;;
14789;SDS011;7486;51.010;10.366;2022-12-08T07:31:20;11.53;;;9.13;;
14789;SDS011;7486;51.010;10.366;2022-12-08T07:33:49;10.13;;;8.77;;
14789;SDS011;7486;51.010;10.366;2022-12-08T07:36:16;12.03;;;9.40;;
14789;SDS011;7486;51.010;10.366;2022-12-08T07:38:43;10.50;;;8.57;;
14789;SDS011;7486;51.010;10.366;2022-12-08T07:41:10;11.63;;;9.10;;
14789;SDS011;7486;51.010;10.366;2022-12-08T07:43:45;11.87;;;9.43;;
14789;SDS011;7486;51.010;10.366;2022-12-08T07:46:13;11.47;;;8.97;;
14789;SDS011;7486;51.010;10.366;2022-12-08T07:48:41;10.43;;;8.93;;
14789;SDS011;7486;51.010;10.366;2022-12-08T07:51:09;10.40;;;8.73;;
14789;SDS011;7486;51.010;10.366;2022-12-08T07:53:37;12.40;;;9.70;;
14789;SDS011;7486;51.010;10.366;2022-12-08T07:56:12;11.13;;;9.13;;
14789;SDS011;7486;51.010;10.366;2022-12-08T07:58:39;12.03;;;9.10;;
14789;SDS011;7486;51.010;10.366;2022-12-08T08:01:16;11.93;;;9.13;;
14789;SDS011;7486;51.010;10.366;2022-12-08T08:03:54;11.20;;;8.90;;
14789;SDS011;7486;51.010;10.366;2022-12-08T08:06:22;11.90;;;8.80;;
14789;SDS011;7486;51.010;10.366;2022-12-08T08:08:49;11.07;;;8.97;;
14789;SDS011;7486;51.010;10.366;2022-12-08T08:11:16;9.60;;;8.60;;
14789;SDS011;7486;51.010;10.366;2022-12-08T08:13:47;11.67;;;8.70;;
14789;SDS011;7486;51.010;10.366;2022-12-08T08:16:15;10.93;;;8.20;;
14789;SDS011;7486;51.010;10.366;2022-12-08T08:18:47;8.93;;;8.03;;
14789;SDS011;7486;51.010;10.366;2022-12-08T08:21:16;10.23;;;8.13;;
14789;SDS011;7486;51.010;10.366;2022-12-08T08:24:04;10.43;;;8.37;;
14789;SDS011;7486;51.010;10.366;2022-12-08T08:26:32;10.03;;;8.10;;
14789;SDS011;7486;51.010;10.366;2022-12-08T08:28:58;8.23;;;7.33;;
14789;SDS011;7486;51.010;10.366;2022-12-08T08:31:25;10.30;;;8.00;;
14789;SDS011;7486;51.010;10.366;2022-12-08T08:33:52;9.57;;;7.63;;
14789;SDS011;7486;51.010;10.366;2022-12-08T08:36:21;10.30;;;8.10;;
14789;SDS011;7486;51.010;10.366;2022-12-08T08:38:47;10.30;;;7.97;;
14789;SDS011;7486;51.010;10.366;2022-12-08T08:41:14;8.73;;;7.70;;
14789;SDS011;7486;51.010;10.366;2022-12-08T08:43:42;10.97;;;7.80;;
14789;SDS011;7486;51.010;10.366;2022-12-08T08:46:08;11.53;;;8.30;;
14789;SDS011;7486;51.010;10.366;2022-12-08T08:48:35;9.00;;;7.47;;
14789;SDS011;7486;51.010;10.366;2022-12-08T08:51:07;11.40;;;7.70;;
14789;SDS011;7486;51.010;10.366;2022-12-08T08:53:38;10.23;;;7.70;;
14789;SDS011;7486;51.010;10.366;2022-12-08T08:56:09;11.57;;;8.07;;
14789;SDS011;7486;51.010;10.366;2022-12-08T08:58:37;8.97;;;7.80;;
14789;SDS011;7486;51.010;10.366;2022-12-08T09:01:04;10.27;;;8.03;;
14789;SDS011;7486;51.010;10.366;2022-12-08T09:03:32;9.40;;;8.33;;
14789;SDS011;7486;51.010;10.366;2022-12-08T09:05:59;11.30;;;9.10;;
14789;SDS011;7486;51.010;10.366;2022-12-08T09:08:27;10.27;;;8.10;;
14789;SDS011;7486;51.010;10.366;2022-12-08T09:10:53;12.37;;;8.37;;
14789;SDS011;7486;51.010;10.366;2022-12-08T09:13:20;10.27;;;8.27;;
14789;SDS011;7486;51.010;10.366;2022-12-08T09:15:47;9.57;;;8.57;;
14789;SDS011;7486;51.010;10.366;2022-12-08T09:18:13;9.50;;;7.70;;
14789;SDS011;7486;51.010;10.366;2022-12-08T09:20:40;9.57;;;7.67;;
14789;SDS011;7486;51.010;10.366;2022-12-08T09:23:07;11.53;;;8.27;;
14789;SDS011;7486;51.010;10.366;2022-12-08T09:25:34;11.33;;;9.07;;
14789;SDS011;7486;51.010;10.366;2022-12-08T09:28:01;10.57;;;8.33;;
14789;SDS011;7486;51.010;10.366;2022-12-08T09:30:27;9.23;;;8.00;;
14789;SDS011;7486;51.010;10.366;2022-12-08T09:32:54;10.70;;;8.20;;
14789;SDS011;7486;51.010;10.366;2022-12-08T09:35:21;9.77;;;8.20;;
14789;SDS011;7486;51.010;10.366;2022-12-08T09:37:47;11.33;;;7.80;;
14789;SDS011;7486;51.010;10.366;2022-12-08T09:40:15;9.90;;;8.37;;
14789;SDS011;7486;51.010;10.366;2022-12-08T09:42:49;10.87;;;8.27;;
14789;SDS011;7486;51.010;10.366;2022-12-08T09:45:19;10.77;;;7.63;;
14789;SDS011;7486;51.010;10.366;2022-12-08T09:53:17;9.73;;;7.27;;
14789;SDS011;7486;51.010;10.366;2022-12-08T09:55:50;8.47;;;7.00;;
14789;SDS011;7486;51.010;10.366;2022-12-08T10:01:16;8.30;;;6.87;;
14789;SDS011;7486;51.010;10.366;2022-12-08T10:03:44;8.17;;;6.90;;
14789;SDS011;7486;51.010;10.366;2022-12-08T10:12:13;9.23;;;6.80;;
14789;SDS011;7486;51.010;10.366;2022-12-08T10:14:45;9.13;;;7.40;;
14789;SDS011;7486;51.010;10.366;2022-12-08T10:19:59;8.60;;;7.13;;
14789;SDS011;7486;51.010;10.366;2022-12-08T10:22:32;7.77;;;6.57;;
14789;SDS011;7486;51.010;10.366;2022-12-08T10:25:17;7.10;;;6.17;;
14789;SDS011;7486;51.010;10.366;2022-12-08T10:27:47;6.67;;;5.80;;
14789;SDS011;7486;51.010;10.366;2022-12-08T10:30:17;7.93;;;6.57;;
14789;SDS011;7486;51.010;10.366;2022-12-08T10:32:49;8.13;;;6.60;;
14789;SDS011;7486;51.010;10.366;2022-12-08T10:35:19;6.10;;;5.50;;
14789;SDS011;7486;51.010;10.366;2022-12-08T10:37:56;6.53;;;5.40;;
14789;SDS011;7486;51.010;10.366;2022-12-08T10:40:27;7.00;;;5.83;;
14789;SDS011;7486;51.010;10.366;2022-12-08T10:43:01;6.90;;;5.90;;
14789;SDS011;7486;51.010;10.366;2022-12-08T10:45:29;6.00;;;5.23;;
14789;SDS011;7486;51.010;10.366;2022-12-08T10:48:03;10.17;;;6.50;;
14789;SDS011;7486;51.010;10.366;2022-12-08T10:50:42;6.80;;;6.03;;
14789;SDS011;7486;51.010;10.366;2022-12-08T10:53:31;5.90;;;5.30;;
14789;SDS011;7486;51.010;10.366;2022-12-08T11:01:17;7.37;;;5.70;;
14789;SDS011;7486;51.010;10.366;2022-12-08T11:03:51;6.97;;;5.50;;
14789;SDS011;7486;51.010;10.366;2022-12-08T11:06:24;6.23;;;5.63;;
14789;SDS011;7486;51.010;10.366;2022-12-08T11:08:59;6.30;;;5.70;;
14789;SDS011;7486;51.010;10.366;2022-12-08T11:14:26;6.97;;;5.60;;
14789;SDS011;7486;51.010;10.366;2022-12-08T11:17:04;6.17;;;5.37;;
14789;SDS011;7486;51.010;10.366;2022-12-08T11:19:37;7.67;;;6.27;;
14789;SDS011;7486;51.010;10.366;2022-12-08T11:25:23;7.20;;;5.80;;
14789;SDS011;7486;51.010;10.366;2022-12-08T11:27:55;6.80;;;5.50;;
14789;SDS011;7486;51.010;10.366;2022-12-08T11:30:24;7.80;;;6.00;;
14789;SDS011;7486;51.010;10.366;2022-12-08T11:32:56;8.27;;;6.07;;
14789;SDS011;7486;51.010;10.366;2022-12-08T11:35:40;6.73;;;6.03;;
14789;SDS011;7486;51.010;10.366;2022-12-08T11:40:54;6.90;;;5.93;;
14789;SDS011;7486;51.010;10.366;2022-12-08T11:43:28;7.77;;;6.00;;
14789;SDS011;7486;51.010;10.366;2022-12-08T11:46:02;7.90;;;6.00;;
14789;SDS011;7486;51.010;10.366;2022-12-08T11:51:32;7.37;;;6.60;;
14789;SDS011;7486;51.010;10.366;2022-12-08T11:56:48;8.13;;;6.63;;
14789;SDS011;7486;51.010;10.366;2022-12-08T11:59:30;8.20;;;6.70;;
14789;SDS011;7486;51.010;10.366;2022-12-08T12:02:01;7.70;;;6.30;;
14789;SDS011;7486;51.010;10.366;2022-12-08T12:04:32;8.07;;;6.30;;
14789;SDS011;7486;51.010;10.366;2022-12-08T12:14:05;8.70;;;7.07;;
14789;SDS011;7486;51.010;10.366;2022-12-08T12:16:31;7.70;;;6.50;;
14789;SDS011;7486;51.010;10.366;2022-12-08T12:19:20;6.90;;;6.10;;
14789;SDS011;7486;51.010;10.366;2022-12-08T12:21:53;7.37;;;6.67;;
14789;SDS011;7486;51.010;10.366;2022-12-08T12:24:26;7.07;;;6.07;;
14789;SDS011;7486;51.010;10.366;2022-12-08T12:29:48;8.00;;;6.53;;
14789;SDS011;7486;51.010;10.366;2022-12-08T12:32:22;7.50;;;6.40;;
14789;SDS011;7486;51.010;10.366;2022-12-08T12:34:51;7.57;;;6.77;;
14789;SDS011;7486;51.010;10.366;2022-12-08T12:37:24;8.70;;;6.63;;
14789;SDS011;7486;51.010;10.366;2022-12-08T12:40:02;7.63;;;6.67;;
14789;SDS011;7486;51.010;10.366;2022-12-08T12:52:59;8.37;;;6.10;;
14789;SDS011;7486;51.010;10.366;2022-12-08T12:58:32;7.70;;;6.30;;
14789;SDS011;7486;51.010;10.366;2022-12-08T13:03:40;7.03;;;5.97;;
14789;SDS011;7486;51.010;10.366;2022-12-08T13:06:09;8.30;;;6.23;;
14789;SDS011;7486;51.010;10.366;2022-12-08T13:08:50;7.10;;;6.13;;
14789;SDS011;7486;51.010;10.366;2022-12-08T13:11:18;5.93;;;5.33;;
14789;SDS011;7486;51.010;10.366;2022-12-08T13:13:59;6.23;;;5.63;;
14789;SDS011;7486;51.010;10.366;2022-12-08T13:16:32;6.80;;;6.07;;
14789;SDS011;7486;51.010;10.366;2022-12-08T13:19:12;6.53;;;5.30;;
14789;SDS011;7486;51.010;10.366;2022-12-08T13:21:42;6.20;;;5.50;;
14789;SDS011;7486;51.010;10.366;2022-12-08T13:24:26;6.57;;;5.90;;
14789;SDS011;7486;51.010;10.366;2022-12-08T13:29:29;6.13;;;5.53;;
14789;SDS011;7486;51.010;10.366;2022-12-08T13:31:57;6.10;;;5.50;;
14789;SDS011;7486;51.010;10.366;2022-12-08T13:39:28;6.70;;;5.30;;
14789;SDS011;7486;51.010;10.366;2022-12-08T13:48:10;5.70;;;5.10;;
14789;SDS011;7486;51.010;10.366;2022-12-08T13:51:24;5.73;;;4.67;;
14789;SDS011;7486;51.010;10.366;2022-12-08T13:57:26;4.97;;;4.40;;
14789;SDS011;7486;51.010;10.366;2022-12-08T14:00:14;5.50;;;4.73;;
14789;SDS011;7486;51.010;10.366;2022-12-08T14:02:46;6.47;;;5.10;;
14789;SDS011;7486;51.010;10.366;2022-12-08T14:05:16;5.50;;;4.97;;
14789;SDS011;7486;51.010;10.366;2022-12-08T14:08:00;6.37;;;5.30;;
14789;SDS011;7486;51.010;10.366;2022-12-08T14:10:28;6.20;;;5.17;;
14789;SDS011;7486;51.010;10.366;2022-12-08T14:13:00;8.27;;;6.80;;
14789;SDS011;7486;51.010;10.366;2022-12-08T14:15:31;9.53;;;6.97;;
14789;SDS011;7486;51.010;10.366;2022-12-08T14:18:04;8.83;;;5.50;;
14789;SDS011;7486;51.010;10.366;2022-12-08T14:20:33;6.37;;;5.57;;
14789;SDS011;7486;51.010;10.366;2022-12-08T14:23:20;6.70;;;6.00;;
14789;SDS011;7486;51.010;10.366;2022-12-08T14:25:47;6.10;;;4.97;;
14789;SDS011;7486;51.010;10.366;2022-12-08T14:28:21;6.00;;;5.40;;
14789;SDS011;7486;51.010;10.366;2022-12-08T14:30:49;5.87;;;5.23;;
14789;SDS011;7486;51.010;10.366;2022-12-08T14:33:16;6.07;;;5.47;;
14789;SDS011;7486;51.010;10.366;2022-12-08T14:35:46;6.87;;;5.60;;
14789;SDS011;7486;51.010;10.366;2022-12-08T14:38:16;30.27;;;7.03;;
14789;SDS011;7486;51.010;10.366;2022-12-08T14:43:25;7.17;;;5.67;;
14789;SDS011;7486;51.010;10.366;2022-12-08T14:45:58;6.43;;;5.83;;
14789;SDS011;7486;51.010;10.366;2022-12-08T14:53:38;7.57;;;5.37;;
14789;SDS011;7486;51.010;10.366;2022-12-08T14:56:22;5.87;;;5.27;;
14789;SDS011;7486;51.010;10.366;2022-12-08T14:59:05;6.10;;;5.50;;
14789;SDS011;7486;51.010;10.366;2022-12-08T15:01:51;6.43;;;5.43;;
14789;SDS011;7486;51.010;10.366;2022-12-08T15:04:36;6.67;;;5.93;;
14789;SDS011;7486;51.010;10.366;2022-12-08T15:09:42;7.00;;;6.03;;
14789;SDS011;7486;51.010;10.366;2022-12-08T15:14:41;6.77;;;5.57;;
14789;SDS011;7486;51.010;10.366;2022-12-08T15:18:10;6.23;;;5.63;;
14789;SDS011;7486;51.010;10.366;2022-12-08T15:20:38;6.87;;;5.70;;
14789;SDS011;7486;51.010;10.366;2022-12-08T15:23:19;8.87;;;5.70;;
14789;SDS011;7486;51.010;10.366;2022-12-08T15:25:56;131.90;;;13.07;;
14789;SDS011;7486;51.010;10.366;2022-12-08T15:28:31;652.43;;;39.30;;
14789;SDS011;7486;51.010;10.366;2022-12-08T15:30:58;511.10;;;26.20;;
14789;SDS011;7486;51.010;10.366;2022-12-08T15:33:25;370.53;;;24.97;;
14789;SDS011;7486;51.010;10.366;2022-12-08T15:35:52;8.93;;;5.50;;
14789;SDS011;7486;51.010;10.366;2022-12-08T15:38:21;7.53;;;5.40;;
14789;SDS011;7486;51.010;10.366;2022-12-08T15:40:50;6.80;;;5.97;;
14789;SDS011;7486;51.010;10.366;2022-12-08T15:43:21;6.43;;;5.83;;
14789;SDS011;7486;51.010;10.366;2022-12-08T15:45:48;6.20;;;5.43;;
14789;SDS011;7486;51.010;10.366;2022-12-08T15:48:27;6.87;;;5.57;;
14789;SDS011;7486;51.010;10.366;2022-12-08T15:50:55;7.77;;;5.97;;
14789;SDS011;7486;51.010;10.366;2022-12-08T15:53:22;6.50;;;5.80;;
14789;SDS011;7486;51.010;10.366;2022-12-08T15:55:49;7.93;;;6.27;;
14789;SDS011;7486;51.010;10.366;2022-12-08T15:58:36;8.87;;;5.87;;
14789;SDS011;7486;51.010;10.366;2022-12-08T16:01:21;6.87;;;5.93;;
14789;SDS011;7486;51.010;10.366;2022-12-08T16:03:49;7.37;;;6.07;;
14789;SDS011;7486;51.010;10.366;2022-12-08T16:06:36;6.33;;;5.60;;
14789;SDS011;7486;51.010;10.366;2022-12-08T16:09:36;7.10;;;5.67;;
14789;SDS011;7486;51.010;10.366;2022-12-08T16:12:13;6.50;;;5.47;;
14789;SDS011;7486;51.010;10.366;2022-12-08T16:14:42;6.77;;;5.70;;
14789;SDS011;7486;51.010;10.366;2022-12-08T16:17:29;6.80;;;6.10;;
14789;SDS011;7486;51.010;10.366;2022-12-08T16:19:57;6.63;;;5.90;;
14789;SDS011;7486;51.010;10.366;2022-12-08T16:22:26;6.87;;;5.90;;
14789;SDS011;7486;51.010;10.366;2022-12-08T16:25:14;6.50;;;5.47;;
14789;SDS011;7486;51.010;10.366;2022-12-08T16:27:47;7.90;;;6.17;;
14789;SDS011;7486;51.010;10.366;2022-12-08T16:30:36;7.73;;;5.90;;
14789;SDS011;7486;51.010;10.366;2022-12-08T16:33:03;7.17;;;5.80;;
14789;SDS011;7486;51.010;10.366;2022-12-08T16:35:30;11.17;;;6.37;;
14789;SDS011;7486;51.010;10.366;2022-12-08T16:37:57;6.57;;;5.60;;
14789;SDS011;7486;51.010;10.366;2022-12-08T16:40:24;6.43;;;5.43;;
14789;SDS011;7486;51.010;10.366;2022-12-08T16:42:51;7.03;;;5.80;;
14789;SDS011;7486;51.010;10.366;2022-12-08T16:47:45;8.00;;;6.27;;
14789;SDS011;7486;51.010;10.366;2022-12-08T16:50:18;7.67;;;6.00;;
14789;SDS011;7486;51.010;10.366;2022-12-08T16:52:47;8.20;;;7.17;;
14789;SDS011;7486;51.010;10.366;2022-12-08T16:55:16;41.40;;;28.40;;
14789;SDS011;7486;51.010;10.366;2022-12-08T16:57:44;40.17;;;26.33;;
14789;SDS011;7486;51.010;10.366;2022-12-08T17:00:13;113.27;;;61.30;;
14789;SDS011;7486;51.010;10.366;2022-12-08T17:02:41;13.77;;;12.37;;
14789;SDS011;7486;51.010;10.366;2022-12-08T17:05:09;8.53;;;7.63;;
14789;SDS011;7486;51.010;10.366;2022-12-08T17:07:37;6.93;;;5.67;;
14789;SDS011;7486;51.010;10.366;2022-12-08T17:10:04;9.33;;;7.80;;
14789;SDS011;7486;51.010;10.366;2022-12-08T17:12:33;7.17;;;6.47;;
14789;SDS011;7486;51.010;10.366;2022-12-08T17:15:06;6.23;;;5.33;;
14789;SDS011;7486;51.010;10.366;2022-12-08T17:17:35;6.43;;;5.83;;